Cranbrook Airport
CYXC : now visible

Airfield :











YOU CAN JOIN US ON...

 
LOGIN :

Register | Disclaimer

   EN    FR    IT 

 









Legend :    VFR   Marginal VFR   IFR   Intensive IFR   Very Intensive IFR
Visi :
Ceiling :
>= 8 km
>= 3000ft
5 to 8 km
1000 to 3000 ft
1500m to 5 km
500 to 1000 ft
800 to 1500m
200 to 500 ft
< 800m
< 200 ft
Symbols :   Thunderstorms  Fog  Heavy snow  Heavy precipitations  Wind > 20 kt






- Airport Elevation : 3082 ft
- IATA code : YXC


CYXC - Cranbrook

CURRENT METAR :
  • 270500Z 00000KT 25SM SCT200 M02/M05 A3030 RMK CI3 SLP302

EXPIRED METARs :
  • 270400Z VRB02KT 25SM FEW170 M00/M06 A3029 RMK AC1 SLP295
  • 270300Z 20004KT 25SM FEW090 01/M07 A3026 WS RWY16 RMK AC1 AC TR SLP286

TAF TAF CYXC
Valid from the 27 at 01:00 until the 27 at 13:00 UTC


270038Z 2701/2713 18005KT P6SM FEW050 SCT080
FM271000 18005KT P6SM BKN050 RMK NXT FCST BY 270700Z



MET'MAP, your aeronautical weather chart ! - Copyright ORBIFLY December 2007 - Disclaimer

ORBIFLY MET'MAP TEAM :

Programming & Development : Alexandra Zaïnal
Concept & original design : Baudouin d'Aumeries
Assistance for programming : Marc-Olivier Méhu
Technical & hardware support : Manuel Goepfert

Contact : metmap@orbifly.com




SOURCES & CREDITS :

   NOAA       Earth
Advisory